Time;durP1;ratioP1;P1;durP2;ratioP2;P2;SDS_P1;SDS_P2;PMS_P1;PMS_P2;Temp;Humidity;BMP_temperature;BMP_pressure;BME280_temperature;BME280_humidity;BME280_pressure;Samples;Min_cycle;Max_cycle;Signal;HPM_P1;HPM_P2
2021/11/08 00:00:51;;;;;;;;;;;8.50;99.90;;;;;;5014279;28;19951;-77
2021/11/08 00:03:20;;;;;;;;;;;8.40;99.90;;;;;;5014199;28;20405;-77
2021/11/08 00:05:46;;;;;;;;;;;8.20;99.90;;;;;;5013934;28;19913;-76
2021/11/08 00:08:15;;;;;;;;;;;8.10;99.90;;;;;;5014017;28;20393;-80
2021/11/08 00:10:41;;;;;;;;;;;8.10;99.90;;;;;;5013981;28;19920;-79
2021/11/08 00:13:08;;;;;;;;;;;8.30;99.90;;;;;;5014070;28;20337;-81
2021/11/08 00:15:44;;;;;;;;;;;8.30;99.90;;;;;;5013990;28;20396;-80
2021/11/08 00:18:18;;;;;;;;;;;8.30;99.90;;;;;;5014151;28;19905;-79
2021/11/08 00:20:48;;;;;;;;;;;8.40;99.90;;;;;;5012337;28;19906;-80
2021/11/08 00:23:14;;;;;;;;;;;8.40;99.90;;;;;;5013851;28;19956;-80
2021/11/08 00:25:41;;;;;;;;;;;8.20;99.90;;;;;;5013872;28;19970;-80
2021/11/08 00:28:07;;;;;;;;;;;8.10;99.90;;;;;;5013813;28;19906;-81
2021/11/08 00:30:35;;;;;;;;;;;7.90;99.90;;;;;;5013807;28;20282;-79
2021/11/08 00:33:01;;;;;;;;;;;8.00;99.90;;;;;;5012540;28;20386;-80
2021/11/08 00:35:27;;;;;;;;;;;7.90;99.90;;;;;;5013779;28;20413;-80
2021/11/08 00:37:52;;;;;;;;;;;8.00;99.90;;;;;;5013906;28;19909;-81
2021/11/08 00:40:18;;;;;;;;;;;8.00;99.90;;;;;;5013732;28;20350;-80
2021/11/08 00:42:44;;;;;;;;;;;8.00;99.90;;;;;;5013930;28;19913;-80
2021/11/08 00:45:11;;;;;;;;;;;8.20;99.90;;;;;;5013574;28;19909;-80
2021/11/08 00:47:36;;;;;;;;;;;8.20;99.90;;;;;;5013668;28;19955;-80
2021/11/08 00:50:03;;;;;;;;;;;8.10;99.90;;;;;;5013619;28;19913;-80
2021/11/08 00:52:29;;;;;;;;;;;7.90;99.90;;;;;;5013620;28;19905;-79
2021/11/08 00:54:55;;;;;;;;;;;8.00;99.90;;;;;;5013745;28;19905;-80
2021/11/08 00:57:24;;;;;;;;;;;8.20;99.90;;;;;;5012262;28;20301;-80
2021/11/08 00:59:52;;;;;;;;;;;8.10;99.90;;;;;;5013527;28;19928;-81
2021/11/08 01:02:19;;;;;;;;;;;7.90;99.90;;;;;;5012193;28;19906;-81
2021/11/08 01:04:45;;;;;;;;;;;7.70;99.90;;;;;;5013893;28;19916;-80
2021/11/08 01:07:11;;;;;;;;;;;7.60;99.90;;;;;;5016606;28;20354;-82
2021/11/08 01:09:36;;;;;;;;;;;7.70;99.90;;;;;;5016803;28;19916;-81
2021/11/08 01:12:03;;;;;;;;;;;7.70;99.90;;;;;;5016745;28;19926;-81
2021/11/08 01:14:28;;;;;;;;;;;7.60;99.90;;;;;;5017305;28;19905;-81
2021/11/08 01:16:56;;;;;;;;;;;7.60;99.90;;;;;;5017241;28;19905;-81
2021/11/08 01:19:23;;;;;;;;;;;7.50;99.90;;;;;;5017113;28;19952;-79
2021/11/08 01:21:50;;;;;;;;;;;7.40;99.90;;;;;;5017052;28;19967;-80
2021/11/08 01:24:15;;;;;;;;;;;7.40;99.90;;;;;;5016885;28;19909;-80
2021/11/08 01:26:42;;;;;;;;;;;7.40;99.90;;;;;;5015589;28;20281;-80
2021/11/08 01:29:08;;;;;;;;;;;7.40;99.90;;;;;;5017023;28;19956;-80
2021/11/08 01:31:33;;;;;;;;;;;7.30;99.90;;;;;;5016718;28;19905;-82
2021/11/08 01:33:59;;;;;;;;;;;7.40;99.90;;;;;;5016718;28;20370;-80
2021/11/08 01:36:28;;;;;;;;;;;7.50;99.90;;;;;;5016660;28;19905;-79
2021/11/08 01:38:59;;;;;;;;;;;7.50;99.90;;;;;;5015281;28;19909;-80
2021/11/08 01:41:27;;;;;;;;;;;7.50;99.90;;;;;;5015092;28;19928;-79
2021/11/08 01:43:52;;;;;;;;;;;7.50;99.90;;;;;;5016480;28;20063;-80
2021/11/08 01:46:19;;;;;;;;;;;7.50;99.90;;;;;;5015178;28;20405;-79
2021/11/08 01:48:46;;;;;;;;;;;7.30;99.90;;;;;;5016813;28;19955;-80
2021/11/08 01:51:12;;;;;;;;;;;7.20;99.90;;;;;;5016544;28;20468;-79
2021/11/08 01:53:38;;;;;;;;;;;7.20;99.90;;;;;;5016541;28;19917;-80
2021/11/08 01:56:04;;;;;;;;;;;7.20;99.90;;;;;;5016301;28;19905;-79
2021/11/08 01:58:31;;;;;;;;;;;7.50;99.90;;;;;;5016234;28;20017;-79
2021/11/08 02:00:57;;;;;;;;;;;7.40;99.90;;;;;;5016377;28;19906;-80
2021/11/08 02:03:23;;;;;;;;;;;7.30;99.90;;;;;;5016190;28;19993;-80
2021/11/08 02:05:48;;;;;;;;;;;7.40;99.90;;;;;;5016010;28;20052;-80
2021/11/08 02:08:15;;;;;;;;;;;7.50;99.90;;;;;;5014762;28;19912;-79
2021/11/08 02:10:40;;;;;;;;;;;7.50;99.90;;;;;;5015857;28;19913;-77
2021/11/08 02:13:06;;;;;;;;;;;7.40;99.90;;;;;;5014721;28;19905;-78
2021/11/08 02:15:32;;;;;;;;;;;7.40;99.90;;;;;;5016109;28;19917;-77
2021/11/08 02:17:58;;;;;;;;;;;7.40;99.90;;;;;;5014300;28;19906;-78
2021/11/08 02:20:26;;;;;;;;;;;7.40;99.90;;;;;;5015894;28;19984;-77
2021/11/08 02:22:55;;;;;;;;;;;7.40;99.90;;;;;;5016205;28;19940;-77
2021/11/08 02:25:22;;;;;;;;;;;7.30;99.90;;;;;;5015697;28;20384;-77
2021/11/08 02:27:48;;;;;;;;;;;7.20;99.90;;;;;;5015933;28;19940;-77
2021/11/08 02:30:15;;;;;;;;;;;7.10;99.90;;;;;;5015659;28;19909;-77
2021/11/08 02:32:41;;;;;;;;;;;7.30;99.90;;;;;;5015757;28;19913;-78
2021/11/08 02:35:09;;;;;;;;;;;7.20;99.90;;;;;;5014320;28;19906;-77
2021/11/08 02:37:34;;;;;;;;;;;7.10;99.90;;;;;;5015699;28;19929;-77
2021/11/08 02:40:01;;;;;;;;;;;7.20;99.90;;;;;;5015414;28;19906;-80
2021/11/08 02:42:27;;;;;;;;;;;7.30;99.90;;;;;;5014194;28;20317;-81
2021/11/08 02:44:54;;;;;;;;;;;7.40;99.90;;;;;;5015346;28;19913;-79
2021/11/08 02:47:21;;;;;;;;;;;7.30;99.90;;;;;;5014027;28;20449;-79
2021/11/08 02:49:48;;;;;;;;;;;7.10;99.90;;;;;;5015262;28;19905;-81
2021/11/08 02:52:18;;;;;;;;;;;6.90;99.90;;;;;;5015516;28;19905;-79
2021/11/08 02:54:48;;;;;;;;;;;6.90;99.90;;;;;;5015344;28;19906;-80
2021/11/08 02:57:13;;;;;;;;;;;6.90;99.90;;;;;;5015202;28;19906;-80
2021/11/08 02:59:39;;;;;;;;;;;6.80;99.90;;;;;;5015079;28;19909;-80
2021/11/08 03:02:06;;;;;;;;;;;6.80;99.90;;;;;;5015240;28;20370;-80
2021/11/08 03:04:37;;;;;;;;;;;7.00;99.90;;;;;;5014944;28;19909;-80
2021/11/08 03:07:02;;;;;;;;;;;7.10;99.90;;;;;;5015089;28;19909;-80
2021/11/08 03:09:30;;;;;;;;;;;7.20;99.90;;;;;;5014942;28;19905;-80
2021/11/08 03:11:57;;;;;;;;;;;7.20;99.90;;;;;;5014891;28;19953;-81
2021/11/08 03:14:26;;;;;;;;;;;7.00;99.90;;;;;;5013590;28;20440;-80
2021/11/08 03:16:59;;;;;;;;;;;7.10;99.90;;;;;;5014771;28;19905;-81
2021/11/08 03:19:31;;;;;;;;;;;7.00;99.90;;;;;;5014918;28;19906;-79
2021/11/08 03:21:57;;;;;;;;;;;7.00;99.90;;;;;;5014767;28;19911;-81
2021/11/08 03:24:50;;;;;;;;;;;6.80;99.90;;;;;;5013334;28;19913;-80
2021/11/08 03:27:49;;;;;;;;;;;6.70;99.90;;;;;;5014374;28;19906;-80
2021/11/08 03:30:15;;;;;;;;;;;6.90;99.90;;;;;;5014094;28;19909;-79
2021/11/08 03:32:43;;;;;;;;;;;7.20;99.90;;;;;;5013262;28;19906;-80
2021/11/08 03:35:09;;;;;;;;;;;7.30;99.90;;;;;;5014443;28;19906;-80
2021/11/08 03:37:41;;;;;;;;;;;7.40;99.90;;;;;;5014435;28;20300;-81
2021/11/08 03:40:08;;;;;;;;;;;7.50;99.90;;;;;;5013092;28;19905;-80
2021/11/08 03:42:34;;;;;;;;;;;7.50;99.90;;;;;;5014343;28;19913;-80
2021/11/08 03:45:00;;;;;;;;;;;7.50;99.90;;;;;;5014266;28;20358;-80
2021/11/08 03:47:26;;;;;;;;;;;7.40;99.90;;;;;;5014392;28;20370;-79
2021/11/08 03:49:52;;;;;;;;;;;7.30;99.90;;;;;;5013000;28;19912;-81
2021/11/08 03:52:17;;;;;;;;;;;7.40;99.90;;;;;;5014281;28;19905;-80
2021/11/08 03:54:43;;;;;;;;;;;7.70;99.90;;;;;;5014415;28;19905;-79
2021/11/08 03:57:09;;;;;;;;;;;7.80;99.90;;;;;;5014523;28;20373;-80
2021/11/08 03:59:34;;;;;;;;;;;7.70;99.90;;;;;;5014358;28;19912;-82
2021/11/08 04:02:01;;;;;;;;;;;7.90;99.90;;;;;;5012782;28;19909;-80
2021/11/08 04:04:26;;;;;;;;;;;8.00;99.90;;;;;;5012764;28;19910;-81
2021/11/08 04:06:52;;;;;;;;;;;7.90;99.90;;;;;;5014029;28;20408;-79
2021/11/08 04:09:18;;;;;;;;;;;7.70;99.90;;;;;;5012751;28;19905;-80
2021/11/08 04:11:44;;;;;;;;;;;7.90;99.90;;;;;;5013763;28;20289;-80
2021/11/08 04:14:10;;;;;;;;;;;8.10;99.90;;;;;;5014212;28;19909;-81
2021/11/08 04:16:37;;;;;;;;;;;7.90;99.90;;;;;;5014025;28;19906;-81
2021/11/08 04:19:03;;;;;;;;;;;7.90;99.90;;;;;;5013890;28;19909;-79
2021/11/08 04:21:29;;;;;;;;;;;7.90;99.90;;;;;;5014039;28;19905;-80
2021/11/08 04:23:55;;;;;;;;;;;7.90;99.90;;;;;;5012526;28;20437;-80
2021/11/08 04:26:24;;;;;;;;;;;7.80;99.90;;;;;;5013822;28;19906;-80
2021/11/08 04:28:55;;;;;;;;;;;7.80;99.90;;;;;;5013921;28;19912;-79
2021/11/08 04:31:22;;;;;;;;;;;7.90;99.90;;;;;;5013840;28;19960;-80
2021/11/08 04:33:51;;;;;;;;;;;7.90;99.90;;;;;;5013952;28;19909;-82
2021/11/08 04:39:25;;;;;;;;;;;7.90;99.90;;;;;;5013599;28;19960;-80
2021/11/08 04:50:33;;;;;;;;;;;7.00;99.90;;;;;;5017306;28;20301;-81
2021/11/08 04:53:10;;;;;;;;;;;6.90;99.90;;;;;;5015960;28;20283;-80
2021/11/08 05:25:33;;;;;;;;;;;7.60;99.90;;;;;;5016586;28;19909;-82
2021/11/08 05:28:20;;;;;;;;;;;7.80;99.90;;;;;;5015375;28;19992;-80
2021/11/08 05:30:45;;;;;;;;;;;7.70;99.90;;;;;;5015265;28;20362;-80
2021/11/08 05:33:11;;;;;;;;;;;7.60;99.90;;;;;;5016769;28;19912;-80
2021/11/08 05:35:37;;;;;;;;;;;7.50;99.90;;;;;;5016800;28;19905;-80
2021/11/08 05:38:06;;;;;;;;;;;7.30;99.90;;;;;;5016678;28;19916;-81
2021/11/08 05:40:33;;;;;;;;;;;7.50;99.90;;;;;;5015332;28;20337;-81
2021/11/08 05:43:02;;;;;;;;;;;7.30;99.90;;;;;;5016535;28;20020;-81
2021/11/08 05:45:32;;;;;;;;;;;7.50;99.90;;;;;;5015159;28;19913;-81
2021/11/08 05:47:58;;;;;;;;;;;7.30;99.90;;;;;;5016436;28;19906;-80
2021/11/08 05:50:24;;;;;;;;;;;7.30;99.90;;;;;;5016390;28;19975;-80
2021/11/08 05:52:51;;;;;;;;;;;7.20;99.90;;;;;;5015659;28;20362;-80
2021/11/08 05:55:19;;;;;;;;;;;7.30;99.90;;;;;;5016530;28;19912;-79
2021/11/08 06:49:51;;;;;;;;;;;8.20;99.90;;;;;;5015522;28;19999;-80
2021/11/08 06:52:18;;;;;;;;;;;8.20;99.90;;;;;;5014016;28;19905;-80
2021/11/08 06:54:47;;;;;;;;;;;8.20;99.90;;;;;;5014006;28;19959;-80
2021/11/08 06:57:14;;;;;;;;;;;8.00;99.90;;;;;;5015200;28;20380;-80
2021/11/08 06:59:41;;;;;;;;;;;8.10;99.90;;;;;;5013836;28;20428;-80
2021/11/08 07:02:07;;;;;;;;;;;8.20;99.90;;;;;;5015036;28;19912;-80
2021/11/08 07:04:33;;;;;;;;;;;8.30;99.90;;;;;;5012613;28;19917;-80
2021/11/08 07:06:59;;;;;;;;;;;8.30;99.90;;;;;;5013745;28;20004;-80
2021/11/08 07:09:25;;;;;;;;;;;8.20;99.90;;;;;;5015048;28;19906;-80
2021/11/08 07:11:50;;;;;;;;;;;8.20;99.90;;;;;;5014808;28;20398;-80
2021/11/08 07:14:16;;;;;;;;;;;8.30;99.90;;;;;;5014866;28;20004;-80
2021/11/08 07:16:44;;;;;;;;;;;8.30;99.90;;;;;;5013540;28;19911;-79
2021/11/08 07:19:10;;;;;;;;;;;8.40;99.90;;;;;;5013483;28;20301;-80
2021/11/08 07:21:36;;;;;;;;;;;8.40;99.90;;;;;;5014870;28;19905;-80
2021/11/08 07:24:02;;;;;;;;;;;8.50;99.90;;;;;;5014695;28;19952;-80
2021/11/08 07:26:28;;;;;;;;;;;8.50;99.90;;;;;;5014670;28;19913;-77
2021/11/08 07:28:53;;;;;;;;;;;8.50;99.90;;;;;;5014575;28;19915;-78
2021/11/08 07:31:19;;;;;;;;;;;8.50;99.90;;;;;;5013308;28;19988;-77
2021/11/08 07:33:44;;;;;;;;;;;8.50;99.90;;;;;;5013309;28;19905;-78
2021/11/08 07:36:10;;;;;;;;;;;8.50;99.90;;;;;;5014444;28;20364;-77
2021/11/08 07:38:36;;;;;;;;;;;8.50;99.90;;;;;;5014245;28;19910;-78
2021/11/08 07:41:02;;;;;;;;;;;8.50;99.90;;;;;;5014361;28;19970;-78
2021/11/08 07:43:28;;;;;;;;;;;8.50;99.90;;;;;;5014233;28;19933;-77
2021/11/08 07:45:54;;;;;;;;;;;8.70;99.90;;;;;;5012851;28;19956;-77
2021/11/08 07:48:20;;;;;;;;;;;8.60;99.90;;;;;;5012956;28;19906;-79
2021/11/08 07:50:47;;;;;;;;;;;8.70;99.90;;;;;;5014146;28;19956;-78
2021/11/08 07:53:13;;;;;;;;;;;8.90;99.90;;;;;;5012913;28;19909;-80
2021/11/08 07:55:39;;;;;;;;;;;8.80;99.90;;;;;;5014198;28;19905;-80
2021/11/08 07:58:05;;;;;;;;;;;8.90;99.90;;;;;;5014177;28;19992;-80
2021/11/08 08:00:32;;;;;;;;;;;9.10;99.90;;;;;;5014209;28;19937;-81
2021/11/08 08:02:58;;;;;;;;;;;9.20;99.90;;;;;;5014095;28;19913;-81
2021/11/08 08:05:24;;;;;;;;;;;9.50;99.90;;;;;;5013977;28;19913;-81
2021/11/08 08:07:49;;;;;;;;;;;9.60;99.90;;;;;;5014288;28;19955;-81
2021/11/08 08:10:15;;;;;;;;;;;9.60;99.90;;;;;;5014070;28;19906;-80
2021/11/08 08:12:41;;;;;;;;;;;9.80;99.90;;;;;;5013808;28;19928;-80
2021/11/08 08:15:06;;;;;;;;;;;9.60;99.90;;;;;;5013585;28;19905;-80
2021/11/08 08:17:32;;;;;;;;;;;9.50;99.90;;;;;;5013980;28;20385;-81
2021/11/08 08:19:57;;;;;;;;;;;9.80;99.90;;;;;;5012580;28;19999;-80
2021/11/08 08:22:24;;;;;;;;;;;10.00;99.90;;;;;;5014010;28;19905;-80
2021/11/08 08:24:50;;;;;;;;;;;9.80;99.90;;;;;;5013848;28;20389;-80
2021/11/08 08:27:16;;;;;;;;;;;9.90;99.90;;;;;;5013877;28;19905;-80
2021/11/08 08:29:41;;;;;;;;;;;10.10;99.90;;;;;;5013843;28;19909;-81
2021/11/08 08:32:08;;;;;;;;;;;10.40;99.90;;;;;;5013779;28;19905;-80
2021/11/08 08:34:34;;;;;;;;;;;10.60;99.90;;;;;;5013884;28;19906;-80
2021/11/08 08:36:59;;;;;;;;;;;10.60;99.90;;;;;;5012496;28;20051;-80
2021/11/08 08:39:25;;;;;;;;;;;10.40;99.90;;;;;;5013654;28;20332;-80
2021/11/08 08:41:52;;;;;;;;;;;10.30;99.90;;;;;;5013742;28;19906;-80
2021/11/08 08:44:17;;;;;;;;;;;10.60;99.90;;;;;;5013783;28;19905;-80
2021/11/08 08:46:44;;;;;;;;;;;10.80;99.90;;;;;;5013700;28;19959;-79
2021/11/08 08:49:10;;;;;;;;;;;11.10;99.90;;;;;;5013667;28;19984;-79
2021/11/08 08:51:36;;;;;;;;;;;11.20;99.90;;;;;;5012308;28;20285;-81
2021/11/08 08:54:02;;;;;;;;;;;11.60;99.90;;;;;;5013726;28;19912;-78
2021/11/08 08:56:27;;;;;;;;;;;11.90;99.90;;;;;;5012176;28;19911;-79
2021/11/08 08:58:55;;;;;;;;;;;12.00;99.90;;;;;;5013456;28;19952;-77
2021/11/08 09:01:21;;;;;;;;;;;11.90;99.90;;;;;;5013395;28;19905;-78
2021/11/08 09:03:46;;;;;;;;;;;12.50;99.90;;;;;;5013677;28;19912;-78
2021/11/08 09:06:13;;;;;;;;;;;13.40;99.90;;;;;;5013409;28;20008;-78
2021/11/08 09:08:39;;;;;;;;;;;14.60;99.90;;;;;;5013462;28;19909;-78
2021/11/08 09:11:05;;;;;;;;;;;14.80;99.00;;;;;;5013268;28;19996;-79
2021/11/08 09:13:31;;;;;;;;;;;14.80;98.20;;;;;;5013824;28;19949;-78
2021/11/08 09:15:57;;;;;;;;;;;14.00;98.10;;;;;;5012199;28;19913;-79
2021/11/08 09:18:22;;;;;;;;;;;15.50;98.20;;;;;;5012138;28;19909;-79
2021/11/08 09:20:49;;;;;;;;;;;17.80;91.40;;;;;;5013571;28;19988;-78
2021/11/08 09:23:15;;;;;;;;;;;19.00;85.10;;;;;;5012120;28;20349;-80
2021/11/08 09:25:41;;;;;;;;;;;19.90;81.10;;;;;;5013230;28;19928;-80
2021/11/08 09:28:07;;;;;;;;;;;20.20;76.20;;;;;;5016016;28;19909;-80
2021/11/08 09:30:37;;;;;;;;;;;20.70;73.30;;;;;;5015582;28;19933;-78
2021/11/08 09:33:03;;;;;;;;;;;20.80;72.70;;;;;;5016719;28;19992;-79
2021/11/08 09:35:36;;;;;;;;;;;20.40;72.20;;;;;;5016718;28;19956;-80
2021/11/08 09:38:05;;;;;;;;;;;19.90;71.20;;;;;;5016973;28;19905;-79
2021/11/08 09:40:31;;;;;;;;;;;19.80;73.60;;;;;;5015391;28;19949;-80
2021/11/08 09:42:56;;;;;;;;;;;20.10;75.30;;;;;;5016588;28;19905;-79
2021/11/08 09:45:22;;;;;;;;;;;21.90;69.90;;;;;;5016453;28;20000;-80
2021/11/08 09:47:48;;;;;;;;;;;23.10;66.40;;;;;;5016513;28;19952;-80
2021/11/08 09:50:15;;;;;;;;;;;23.50;64.70;;;;;;5016464;28;19905;-80
2021/11/08 09:52:42;;;;;;;;;;;25.10;61.40;;;;;;5016415;28;19951;-80
2021/11/08 09:55:09;;;;;;;;;;;25.30;58.10;;;;;;5016522;28;19952;-80
2021/11/08 09:57:34;;;;;;;;;;;23.80;61.30;;;;;;5016295;28;19905;-80
2021/11/08 10:00:02;;;;;;;;;;;24.70;61.80;;;;;;5016490;28;19905;-81
2021/11/08 10:02:28;;;;;;;;;;;27.50;56.60;;;;;;5016241;28;20369;-80
2021/11/08 10:04:53;;;;;;;;;;;25.80;55.80;;;;;;5014880;28;19931;-79
2021/11/08 10:07:19;;;;;;;;;;;23.60;60.00;;;;;;5016267;28;19906;-80
2021/11/08 10:09:44;;;;;;;;;;;23.90;60.50;;;;;;5016123;28;19979;-79
2021/11/08 10:12:11;;;;;;;;;;;24.90;58.70;;;;;;5015857;28;20015;-79
2021/11/08 10:14:38;;;;;;;;;;;24.10;58.70;;;;;;5015903;28;19959;-80
2021/11/08 10:17:04;;;;;;;;;;;24.70;58.90;;;;;;5015940;28;19956;-80
2021/11/08 10:19:32;;;;;;;;;;;24.40;59.40;;;;;;5016084;28;19906;-79
2021/11/08 10:21:58;;;;;;;;;;;24.40;59.10;;;;;;5015978;28;19913;-79
2021/11/08 10:24:29;;;;;;;;;;;24.20;59.80;;;;;;5015665;28;19936;-79
2021/11/08 10:26:55;;;;;;;;;;;24.70;59.10;;;;;;5015751;28;19928;-79
2021/11/08 10:29:22;;;;;;;;;;;24.40;60.00;;;;;;5015768;28;19912;-79
2021/11/08 10:31:56;;;;;;;;;;;23.80;60.30;;;;;;5015770;28;19955;-79
2021/11/08 10:34:22;;;;;;;;;;;24.70;59.40;;;;;;5015648;28;19906;-79
2021/11/08 10:37:00;;;;;;;;;;;25.80;58.60;;;;;;5016030;28;19911;-80
2021/11/08 10:39:26;;;;;;;;;;;24.90;57.30;;;;;;5013969;28;19906;-79
2021/11/08 10:41:53;;;;;;;;;;;24.00;59.20;;;;;;5014150;28;19905;-80
2021/11/08 10:44:23;;;;;;;;;;;23.30;60.80;;;;;;5015325;28;19992;-79
2021/11/08 10:46:51;;;;;;;;;;;24.20;60.50;;;;;;5016064;28;20350;-79
2021/11/08 10:49:17;;;;;;;;;;;24.40;57.90;;;;;;5015622;28;19937;-79
2021/11/08 10:51:52;;;;;;;;;;;24.00;58.80;;;;;;5013988;28;19913;-79
2021/11/08 10:54:23;;;;;;;;;;;24.50;58.70;;;;;;5015193;28;20281;-80
2021/11/08 10:57:05;;;;;;;;;;;25.20;58.00;;;;;;5013940;28;20411;-79
2021/11/08 10:59:35;;;;;;;;;;;25.70;56.70;;;;;;5013894;28;19931;-79
2021/11/08 11:02:04;;;;;;;;;;;24.60;58.20;;;;;;5013846;28;19905;-80
2021/11/08 11:04:31;;;;;;;;;;;23.20;60.50;;;;;;5015172;28;22193;-79
2021/11/08 11:06:57;;;;;;;;;;;24.00;59.70;;;;;;5014928;28;19988;-80
2021/11/08 11:09:32;;;;;;;;;;;26.70;56.20;;;;;;5014975;28;20056;-79
2021/11/08 11:12:15;;;;;;;;;;;28.40;53.50;;;;;;5014803;28;20409;-79
2021/11/08 11:14:41;;;;;;;;;;;28.30;51.50;;;;;;5014959;28;19912;-79
2021/11/08 11:17:09;;;;;;;;;;;26.60;53.90;;;;;;5013577;28;19909;-80
2021/11/08 11:19:35;;;;;;;;;;;28.50;51.70;;;;;;5013488;28;19912;-80
2021/11/08 11:22:04;;;;;;;;;;;29.90;48.40;;;;;;5014752;28;19991;-80
2021/11/08 11:24:32;;;;;;;;;;;29.10;48.90;;;;;;5013302;28;19905;-80
2021/11/08 11:26:58;;;;;;;;;;;28.30;49.90;;;;;;5014758;28;19905;-78
2021/11/08 11:29:28;;;;;;;;;;;27.70;51.20;;;;;;5014616;28;19909;-79
2021/11/08 11:31:54;;;;;;;;;;;28.00;49.30;;;;;;5014590;28;20287;-79
2021/11/08 11:34:19;;;;;;;;;;;27.90;50.00;;;;;;5014780;28;20337;-80
2021/11/08 11:36:45;;;;;;;;;;;27.80;48.50;;;;;;5014806;28;19932;-79
2021/11/08 11:39:13;;;;;;;;;;;26.20;50.80;;;;;;5013418;28;19906;-79
2021/11/08 11:41:40;;;;;;;;;;;26.30;50.30;;;;;;5014347;28;19906;-79
2021/11/08 11:44:22;;;;;;;;;;;27.00;49.60;;;;;;5014402;28;19905;-79
2021/11/08 11:46:50;;;;;;;;;;;30.00;48.10;;;;;;5013093;28;19947;-80
2021/11/08 11:49:16;;;;;;;;;;;33.00;44.20;;;;;;5013815;28;19920;-80
2021/11/08 11:51:44;;;;;;;;;;;35.80;41.40;;;;;;5014214;28;19909;-80
2021/11/08 11:54:11;;;;;;;;;;;34.10;43.10;;;;;;5012996;28;19905;-80
2021/11/08 11:56:38;;;;;;;;;;;36.30;40.90;;;;;;5014223;28;19905;-80
2021/11/08 11:59:04;;;;;;;;;;;38.50;39.30;;;;;;5014136;28;19905;-80
2021/11/08 12:01:30;;;;;;;;;;;40.00;36.60;;;;;;5012842;28;19976;-80
2021/11/08 12:03:56;;;;;;;;;;;38.50;35.70;;;;;;5014056;28;19906;-80
2021/11/08 12:06:26;;;;;;;;;;;39.50;36.80;;;;;;5012790;28;19905;-80
2021/11/08 12:08:53;;;;;;;;;;;37.40;36.10;;;;;;5012783;28;19933;-80
2021/11/08 12:11:25;;;;;;;;;;;35.50;37.90;;;;;;5013780;28;19925;-80
2021/11/08 12:13:56;;;;;;;;;;;33.60;39.20;;;;;;5012525;28;19906;-80
2021/11/08 12:16:28;;;;;;;;;;;31.70;41.40;;;;;;5013883;28;19916;-80
2021/11/08 12:18:59;;;;;;;;;;;33.20;41.50;;;;;;5012455;28;19912;-80
2021/11/08 12:21:24;;;;;;;;;;;35.10;39.80;;;;;;5014195;28;19905;-80
2021/11/08 12:23:51;;;;;;;;;;;32.70;41.20;;;;;;5014005;28;20000;-79
2021/11/08 12:26:17;;;;;;;;;;;30.40;43.10;;;;;;5012553;28;19906;-79
2021/11/08 12:28:45;;;;;;;;;;;28.70;44.60;;;;;;5012437;28;19909;-79
2021/11/08 12:31:11;;;;;;;;;;;28.50;45.30;;;;;;5013748;28;19956;-80
2021/11/08 12:33:38;;;;;;;;;;;28.80;45.90;;;;;;5013960;28;19905;-80
2021/11/08 12:36:06;;;;;;;;;;;28.50;45.10;;;;;;5013821;28;19913;-79
2021/11/08 12:38:35;;;;;;;;;;;27.20;46.60;;;;;;5013689;28;19955;-80
2021/11/08 12:41:05;;;;;;;;;;;26.30;47.50;;;;;;5013667;28;20000;-79
2021/11/08 12:43:31;;;;;;;;;;;26.60;47.90;;;;;;5013836;28;19905;-79
2021/11/08 12:46:07;;;;;;;;;;;27.10;47.00;;;;;;5013618;28;20436;-79
2021/11/08 12:48:33;;;;;;;;;;;26.60;48.20;;;;;;5012095;28;19905;-79
2021/11/08 12:51:00;;;;;;;;;;;26.10;49.40;;;;;;5012385;28;19905;-78
2021/11/08 12:53:29;;;;;;;;;;;26.00;49.90;;;;;;5013624;28;20278;-79
2021/11/08 12:55:55;;;;;;;;;;;25.70;50.40;;;;;;5013577;28;19916;-78
2021/11/08 12:58:51;;;;;;;;;;;25.10;51.20;;;;;;5013519;28;19945;-80
2021/11/08 13:01:21;;;;;;;;;;;23.80;52.30;;;;;;5014740;28;19906;-80
2021/11/08 13:03:50;;;;;;;;;;;22.90;55.20;;;;;;5017456;28;19913;-78
2021/11/08 13:06:27;;;;;;;;;;;23.40;54.30;;;;;;5016001;28;19912;-79
2021/11/08 13:09:10;;;;;;;;;;;23.10;54.20;;;;;;5017248;28;19915;-78
2021/11/08 13:11:46;;;;;;;;;;;23.00;55.60;;;;;;5017069;28;19943;-79
2021/11/08 13:14:21;;;;;;;;;;;23.00;54.90;;;;;;5015631;28;19906;-78
2021/11/08 13:16:48;;;;;;;;;;;23.30;54.40;;;;;;5015837;28;20370;-79
2021/11/08 13:19:15;;;;;;;;;;;22.70;54.30;;;;;;5017375;28;19906;-78
2021/11/08 13:21:41;;;;;;;;;;;22.80;55.50;;;;;;5015707;28;19909;-78
2021/11/08 13:24:08;;;;;;;;;;;22.70;55.00;;;;;;5015662;28;19905;-80
2021/11/08 13:26:34;;;;;;;;;;;22.70;55.50;;;;;;5016875;28;20337;-78
2021/11/08 13:29:04;;;;;;;;;;;22.40;55.60;;;;;;5015571;28;19961;-79
2021/11/08 13:31:29;;;;;;;;;;;21.80;56.80;;;;;;5017067;28;19912;-78
2021/11/08 13:33:56;;;;;;;;;;;21.70;58.10;;;;;;5016732;28;19905;-79
2021/11/08 13:36:22;;;;;;;;;;;22.00;58.00;;;;;;5016674;28;19909;-79
2021/11/08 13:38:52;;;;;;;;;;;22.10;57.20;;;;;;5016615;28;20281;-79
2021/11/08 13:41:19;;;;;;;;;;;22.70;57.00;;;;;;5016773;28;19913;-79
2021/11/08 13:43:46;;;;;;;;;;;24.80;54.50;;;;;;5016750;28;19951;-78
2021/11/08 13:46:24;;;;;;;;;;;25.30;51.80;;;;;;5016733;28;20415;-79
2021/11/08 13:48:54;;;;;;;;;;;24.90;52.00;;;;;;5016463;28;19940;-78
2021/11/08 13:51:25;;;;;;;;;;;24.10;53.30;;;;;;5016814;28;19906;-78
2021/11/08 13:53:53;;;;;;;;;;;23.60;54.50;;;;;;5016379;28;19948;-78
2021/11/08 13:56:19;;;;;;;;;;;23.10;56.00;;;;;;5015005;28;19921;-78
2021/11/08 13:58:46;;;;;;;;;;;23.80;54.60;;;;;;5016343;28;19988;-79
2021/11/08 14:01:12;;;;;;;;;;;24.10;53.60;;;;;;5016171;28;19905;-78
2021/11/08 14:03:39;;;;;;;;;;;24.00;52.90;;;;;;5016420;28;19951;-79
2021/11/08 14:06:05;;;;;;;;;;;24.40;53.30;;;;;;5016285;28;20072;-80
2021/11/08 14:08:31;;;;;;;;;;;25.50;53.00;;;;;;5016305;28;20377;-79
2021/11/08 14:10:57;;;;;;;;;;;27.40;50.00;;;;;;5015866;28;19924;-78
2021/11/08 14:13:36;;;;;;;;;;;25.40;51.00;;;;;;5015427;28;20008;-79
2021/11/08 14:16:03;;;;;;;;;;;23.50;54.40;;;;;;5014646;28;19910;-78
2021/11/08 14:18:29;;;;;;;;;;;23.00;56.30;;;;;;5016185;28;19905;-78
2021/11/08 14:21:05;;;;;;;;;;;22.00;58.20;;;;;;5015914;28;19912;-78
2021/11/08 14:23:30;;;;;;;;;;;21.00;60.60;;;;;;5016107;28;20008;-78
2021/11/08 14:26:05;;;;;;;;;;;21.10;61.30;;;;;;5015815;28;20002;-79
2021/11/08 14:28:31;;;;;;;;;;;21.00;61.70;;;;;;5015870;28;19906;-78
2021/11/08 14:30:57;;;;;;;;;;;21.20;61.90;;;;;;5015627;28;20425;-78
2021/11/08 14:33:22;;;;;;;;;;;21.60;61.00;;;;;;5016024;28;19905;-79
2021/11/08 14:35:48;;;;;;;;;;;21.60;60.50;;;;;;5014122;28;19909;-78
2021/11/08 14:38:28;;;;;;;;;;;21.70;60.30;;;;;;5015403;28;19957;-79
2021/11/08 14:40:56;;;;;;;;;;;22.60;58.80;;;;;;5015398;28;19909;-77
2021/11/08 14:43:25;;;;;;;;;;;22.40;59.30;;;;;;5014131;28;20280;-77
2021/11/08 14:45:58;;;;;;;;;;;22.70;58.40;;;;;;5015669;28;19905;-77
2021/11/08 14:48:25;;;;;;;;;;;22.00;59.20;;;;;;5015414;28;19925;-79
2021/11/08 14:50:50;;;;;;;;;;;21.50;60.10;;;;;;5015252;28;19944;-77
2021/11/08 14:53:16;;;;;;;;;;;20.60;62.30;;;;;;5015424;28;19933;-78
2021/11/08 14:55:42;;;;;;;;;;;19.90;65.40;;;;;;5015153;28;20000;-78
2021/11/08 14:58:18;;;;;;;;;;;20.00;65.60;;;;;;5015136;28;19968;-78
2021/11/08 15:00:47;;;;;;;;;;;19.90;65.80;;;;;;5013821;28;19910;-78
2021/11/08 15:03:17;;;;;;;;;;;19.80;65.70;;;;;;5013846;28;19905;-78
2021/11/08 15:05:44;;;;;;;;;;;19.50;66.90;;;;;;5013488;28;20412;-78
2021/11/08 15:08:14;;;;;;;;;;;19.30;67.80;;;;;;5015133;28;19905;-77
2021/11/08 15:10:40;;;;;;;;;;;19.00;69.20;;;;;;5014670;28;19913;-78
2021/11/08 15:13:07;;;;;;;;;;;18.90;69.90;;;;;;5015306;28;19952;-78
2021/11/08 15:15:33;;;;;;;;;;;19.50;68.80;;;;;;5014821;28;19910;-79
2021/11/08 15:18:01;;;;;;;;;;;19.50;67.90;;;;;;5013589;28;19906;-77
2021/11/08 15:20:31;;;;;;;;;;;19.40;69.30;;;;;;5014809;28;19912;-78
2021/11/08 15:22:59;;;;;;;;;;;19.40;69.20;;;;;;5015359;28;19906;-78
2021/11/08 15:25:42;;;;;;;;;;;20.50;67.80;;;;;;5012533;28;19906;-80
2021/11/08 15:28:15;;;;;;;;;;;22.10;63.90;;;;;;5014805;28;20355;-78
2021/11/08 15:30:43;;;;;;;;;;;22.00;62.50;;;;;;5014984;28;19914;-78
2021/11/08 15:33:11;;;;;;;;;;;21.30;64.40;;;;;;5014523;28;19909;-78
2021/11/08 15:35:39;;;;;;;;;;;20.40;66.30;;;;;;5014403;28;19932;-78
2021/11/08 15:38:08;;;;;;;;;;;20.00;67.20;;;;;;5014360;28;20309;-78
2021/11/08 15:40:34;;;;;;;;;;;19.70;68.50;;;;;;5013218;28;19909;-79
2021/11/08 15:43:03;;;;;;;;;;;19.60;68.40;;;;;;5014443;28;19906;-77
2021/11/08 15:45:29;;;;;;;;;;;19.00;69.80;;;;;;5014395;28;19951;-79
2021/11/08 15:47:57;;;;;;;;;;;18.60;71.60;;;;;;5014363;28;19905;-78
2021/11/08 15:50:23;;;;;;;;;;;18.40;72.70;;;;;;5014591;28;20272;-78
2021/11/08 15:52:49;;;;;;;;;;;18.20;73.80;;;;;;5014344;28;20000;-77
2021/11/08 15:55:14;;;;;;;;;;;17.80;75.30;;;;;;5014328;28;20024;-77
2021/11/08 15:57:40;;;;;;;;;;;17.70;75.70;;;;;;5014308;28;19913;-77
2021/11/08 16:00:06;;;;;;;;;;;17.60;77.20;;;;;;5014322;28;20008;-78